メインページ
METAR-TAF:

METAR-TAF

空港 :

ニューオーリンズ, ルイジアナ州, アメリカ合衆国

ルイ・アームストロング・ニューオーリンズ国際空港

緯度: 29-59-34N, 経度: 090-15-03W, 海抜: 1m

現時点の気象観測

当レポートは44分前の21:53(UTC)に作成
北西の風 4kt
気温 33°C
湿度 49%
気圧 1018 hPa
視程: 16.1km
高度5000ftの雲はほとんどない
高度18000ftの雲は散在している

METAR: KMSY 262153Z 31004KT 10SM FEW050 SCT180 33/21 A3006 RMK AO2 LTG DSNT NE AND E SLP180 CB DSNT N-E T03330211

時間: 17:37 (22:37 UTC)

予報

当レポートは5時間7分前の17:30(UTC)に作成
予報は26日の 18時(UTC)から 27日の 18時(UTC)まで有効
北/北西の風 8kt
視程: 10km
高度3000ftの雲はほとんどない
高度25000ftの雲は散在している
26日の 22時(UTC)から 26日の 24時(UTC)まで一時的に
変向風 20kt、最大35ktの突風を伴う
視程: 3.2km
高度2500ftの千切れ雲あり, 積乱雲.
激しい雷雨, 雨
27日の 0000時(UTC)から
変向風 3kt
視程: 10km
高度6000ftの雲はほとんどない
高度20000ftの雲は散在している

TAF: KMSY 261730Z 2618/2718 33008KT P6SM FEW030 SCT250 TEMPO 2622/2624 VRB20G35KT 2SM TSRA BKN025CB FM270000 VRB03KT P6SM FEW060 SCT200

4,000以上の空港の気象観測と天気予報(METAR報とTAF報)

利用可能な観測所は地図上に黄色い丸と赤い丸で示す。

丸の上にカーソルを重ねると観測所名を参照できる。

次にクリックすると気象観測と天気予報を参照できる。

マップの切り替え:黒色「×」印の緑ボタンをクリックして拡大、「-」印の緑ボタンをクリックして縮小、緑色の三角印をクリックして隣りの地図に切り替え


METAR-TAF: